CheckWX is a tool to help pilots better visualize weather data.  It is not intended as a substitute for an official pre-flight weather briefing.

23:47:07 UTC

KJDD METAR
Wood County Airport
Mineola/Quitman, Texas, USA
Current

32 mins ago

KJDD 192315Z AUTO 36005KT 10SM CLR 11/M06 A3048 RMK AO2
Observed
Jan-19 @ 23:15 UTC
Wind
  • 360° at 5 KTS
Visibility
10 SM
Flight Rules
VFR
Cloud Levels
  • Clear skies
Temperature
11°C / 52°F
Dewpoint
-6°C / 21°F
Humidity
30%
Altimeter
30.48" Hg
Pressure
1032.22 hPa
Previous

52 mins ago

KJDD 192255Z AUTO 36008KT 10SM CLR 11/M06 A3048 RMK AO2
Observed
Jan-19 @ 22:55 UTC
Wind
  • 360° at 8 KTS
Visibility
10 SM
Flight Rules
VFR
Cloud Levels
  • Clear skies
Temperature
11°C / 52°F
Dewpoint
-6°C / 21°F
Humidity
30%
Altimeter
30.48" Hg
Pressure
1032.22 hPa
Previous

1 hour ago

KJDD 192235Z AUTO 36007KT 10SM CLR 12/M06 A3049 RMK AO2
Observed
Jan-19 @ 22:35 UTC
Wind
  • 360° at 7 KTS
Visibility
10 SM
Flight Rules
VFR
Cloud Levels
  • Clear skies
Temperature
12°C / 54°F
Dewpoint
-6°C / 21°F
Humidity
28%
Altimeter
30.49" Hg
Pressure
1032.52 hPa